createdAt,value
2018-09-30T00:01:29.620Z,25.90
2018-09-30T00:03:58.872Z,25.90
2018-09-30T00:06:28.016Z,26.10
2018-09-30T00:08:55.782Z,26.40
2018-09-30T00:11:24.090Z,26.30
2018-09-30T00:13:53.508Z,26.40
2018-09-30T00:16:22.021Z,26.60
2018-09-30T00:18:50.261Z,26.80
2018-09-30T00:21:19.278Z,26.70
2018-09-30T00:23:57.948Z,26.70
2018-09-30T00:26:32.463Z,26.80
2018-09-30T00:29:03.107Z,26.70
2018-09-30T00:31:31.013Z,26.70
2018-09-30T00:34:05.575Z,26.80
2018-09-30T00:36:33.303Z,26.80
2018-09-30T00:39:01.418Z,26.80
2018-09-30T00:41:29.142Z,26.90
2018-09-30T00:44:09.650Z,26.70
2018-09-30T00:46:37.652Z,26.70
2018-09-30T00:49:05.830Z,27.20
2018-09-30T00:51:33.561Z,26.80
2018-09-30T00:54:01.510Z,26.80
2018-09-30T00:56:29.516Z,26.80
2018-09-30T00:58:57.360Z,26.90
2018-09-30T01:01:25.385Z,27.30
2018-09-30T01:03:53.558Z,27.20
2018-09-30T01:06:21.741Z,27.40
2018-09-30T01:08:49.484Z,27.50
2018-09-30T01:11:17.411Z,27.50
2018-09-30T01:13:45.883Z,27.60
2018-09-30T01:16:13.794Z,27.60
2018-09-30T01:18:41.606Z,27.80
2018-09-30T01:21:09.315Z,27.80
2018-09-30T01:23:37.204Z,27.60
2018-09-30T01:26:04.975Z,27.70
2018-09-30T01:28:33.667Z,27.80
2018-09-30T01:31:01.297Z,28.10
2018-09-30T01:33:29.252Z,27.80
2018-09-30T01:35:57.254Z,27.80
2018-09-30T01:38:25.550Z,27.70
2018-09-30T01:40:53.232Z,27.70
2018-09-30T01:43:21.084Z,28.20
2018-09-30T01:45:49.240Z,28.00
2018-09-30T01:48:17.029Z,27.90
2018-09-30T01:50:44.722Z,28.00
2018-09-30T01:53:12.464Z,27.80
2018-09-30T01:55:40.251Z,27.80
2018-09-30T01:58:07.940Z,27.90
2018-09-30T02:00:35.646Z,28.00
2018-09-30T02:03:03.307Z,28.00
2018-09-30T02:05:30.993Z,27.80
2018-09-30T02:07:58.738Z,28.00
2018-09-30T02:10:26.379Z,28.60
2018-09-30T02:12:54.198Z,28.10
2018-09-30T02:15:21.974Z,27.50
2018-09-30T02:17:49.649Z,27.80
2018-09-30T02:20:17.467Z,27.90
2018-09-30T02:22:45.242Z,27.70
2018-09-30T02:25:18.810Z,27.90
2018-09-30T02:27:46.994Z,28.00
2018-09-30T02:30:15.090Z,27.80
2018-09-30T02:32:42.794Z,27.90
2018-09-30T02:35:10.543Z,27.80
2018-09-30T02:37:38.166Z,27.90
2018-09-30T02:40:05.975Z,28.00
2018-09-30T02:42:34.528Z,28.00
2018-09-30T02:45:02.280Z,28.10
2018-09-30T02:47:29.934Z,28.20
2018-09-30T02:49:57.606Z,28.40
2018-09-30T02:52:25.417Z,28.20
2018-09-30T02:54:53.072Z,28.30
2018-09-30T02:57:20.780Z,28.30
2018-09-30T02:59:48.445Z,28.30
2018-09-30T03:02:16.143Z,28.50
2018-09-30T03:04:43.875Z,28.30
2018-09-30T03:07:16.945Z,28.70
2018-09-30T03:09:44.627Z,28.30
2018-09-30T03:12:12.355Z,28.30
2018-09-30T03:14:40.113Z,28.40
2018-09-30T03:17:07.780Z,28.40
2018-09-30T03:19:35.571Z,28.50
2018-09-30T03:22:03.740Z,28.20
2018-09-30T03:24:31.512Z,28.30
2018-09-30T03:26:59.383Z,28.40
2018-09-30T03:29:27.111Z,28.20
2018-09-30T03:31:54.991Z,28.30
2018-09-30T03:34:23.369Z,28.50
2018-09-30T03:36:51.169Z,28.40
2018-09-30T03:39:19.236Z,29.00
2018-09-30T03:41:47.319Z,28.90
2018-09-30T03:44:15.168Z,28.80
2018-09-30T03:46:43.259Z,28.60
2018-09-30T03:49:11.290Z,28.50
2018-09-30T03:51:39.140Z,28.30
2018-09-30T03:54:07.275Z,28.60
2018-09-30T03:56:35.262Z,28.60
2018-09-30T03:59:03.070Z,28.30
2018-09-30T04:01:31.211Z,28.20
2018-09-30T04:03:59.034Z,28.10
2018-09-30T04:06:26.872Z,28.30
2018-09-30T04:08:54.570Z,28.50
2018-09-30T04:11:22.276Z,28.70
2018-09-30T04:13:50.707Z,28.50
2018-09-30T04:16:18.983Z,28.60
2018-09-30T04:18:47.830Z,28.60
2018-09-30T04:21:16.515Z,28.80
2018-09-30T04:23:44.351Z,28.50
2018-09-30T04:26:12.138Z,28.60
2018-09-30T04:28:39.957Z,28.40
2018-09-30T04:31:07.926Z,28.50
2018-09-30T04:33:35.899Z,28.40
2018-09-30T04:36:03.578Z,28.60
2018-09-30T04:38:31.243Z,28.90
2018-09-30T04:40:58.915Z,29.00
2018-09-30T04:43:27.061Z,29.10
2018-09-30T04:45:55.909Z,29.10
2018-09-30T04:48:24.702Z,29.10
2018-09-30T04:50:52.535Z,29.30
2018-09-30T04:53:20.309Z,29.30
2018-09-30T04:55:48.316Z,30.00
2018-09-30T04:58:15.913Z,29.40
2018-09-30T05:00:43.732Z,29.30
2018-09-30T05:03:11.433Z,29.10
2018-09-30T05:05:39.394Z,29.40
2018-09-30T05:08:07.307Z,29.20
2018-09-30T05:10:36.035Z,29.20
2018-09-30T05:13:03.988Z,29.20
2018-09-30T05:15:32.172Z,29.20
2018-09-30T05:17:59.871Z,29.20
2018-09-30T05:20:27.784Z,29.30
2018-09-30T05:22:55.498Z,29.60
2018-09-30T05:25:23.172Z,29.20
2018-09-30T05:27:50.991Z,29.50
2018-09-30T05:30:19.005Z,29.30
2018-09-30T05:32:46.769Z,29.20
2018-09-30T05:35:14.737Z,28.90
2018-09-30T05:37:42.631Z,29.00
2018-09-30T05:40:10.813Z,29.00
2018-09-30T05:42:38.648Z,29.20
2018-09-30T05:45:06.519Z,29.10
2018-09-30T05:47:34.551Z,29.30
2018-09-30T05:50:02.571Z,29.30
2018-09-30T05:52:31.657Z,29.20
2018-09-30T05:54:59.533Z,29.30
2018-09-30T05:57:27.444Z,29.50
2018-09-30T05:59:55.531Z,29.30
2018-09-30T06:02:24.655Z,29.40
2018-09-30T06:04:54.544Z,29.60
2018-09-30T06:07:22.412Z,29.40
2018-09-30T06:09:50.188Z,29.30
2018-09-30T06:12:17.869Z,29.70
2018-09-30T06:14:45.605Z,29.70
2018-09-30T06:17:13.413Z,29.40
2018-09-30T06:19:41.080Z,29.40
2018-09-30T06:22:09.954Z,29.40
2018-09-30T06:24:37.773Z,29.40
2018-09-30T06:27:05.680Z,29.40
2018-09-30T06:29:33.299Z,29.40
2018-09-30T06:32:01.179Z,29.40
2018-09-30T06:34:29.067Z,29.40
2018-09-30T06:36:56.847Z,29.20
2018-09-30T06:39:24.568Z,29.40
2018-09-30T06:41:52.304Z,28.60
2018-09-30T06:44:20.104Z,29.20
2018-09-30T06:46:48.316Z,29.20
2018-09-30T06:49:16.058Z,29.40
2018-09-30T06:51:43.790Z,29.30
2018-09-30T06:56:44.849Z,29.20
2018-09-30T06:59:13.261Z,29.10
2018-09-30T07:01:41.178Z,28.90
2018-09-30T07:04:08.939Z,29.10
2018-09-30T07:06:36.652Z,29.20
2018-09-30T07:09:06.247Z,29.20
2018-09-30T07:11:34.158Z,29.20
2018-09-30T07:14:02.588Z,29.20
2018-09-30T07:16:30.700Z,28.50
2018-09-30T07:18:58.966Z,28.90
2018-09-30T07:21:32.153Z,28.30
2018-09-30T07:24:05.091Z,28.10
2018-09-30T07:26:33.179Z,28.10
2018-09-30T07:29:00.941Z,27.80
2018-09-30T07:31:29.536Z,28.00
2018-09-30T07:33:58.094Z,27.60
2018-09-30T07:36:27.552Z,27.50
2018-09-30T07:38:57.332Z,27.40
2018-09-30T07:41:25.850Z,27.60
2018-09-30T07:43:54.375Z,26.90
2018-09-30T07:46:22.343Z,26.90
2018-09-30T07:48:50.192Z,26.80
2018-09-30T07:51:18.104Z,26.70
2018-09-30T07:53:45.919Z,26.70
2018-09-30T07:56:13.627Z,26.60
2018-09-30T07:58:41.252Z,27.10
2018-09-30T08:01:09.682Z,26.80
2018-09-30T08:03:38.311Z,26.90
2018-09-30T08:06:06.246Z,26.60
2018-09-30T08:08:34.057Z,26.80
2018-09-30T08:11:04.580Z,26.40
2018-09-30T08:13:32.446Z,27.10
2018-09-30T08:16:00.059Z,26.50
2018-09-30T08:18:27.874Z,26.60
2018-09-30T08:20:55.955Z,26.50
2018-09-30T08:23:24.176Z,26.60
2018-09-30T08:26:03.939Z,26.70
2018-09-30T08:28:33.403Z,26.20
2018-09-30T08:31:01.204Z,26.40
2018-09-30T08:33:29.473Z,26.30
2018-09-30T08:36:02.734Z,26.00
2018-09-30T08:38:32.334Z,26.00
2018-09-30T08:41:03.667Z,25.70
2018-09-30T08:43:35.343Z,25.40
2018-09-30T08:46:03.192Z,25.20
2018-09-30T08:48:31.608Z,24.60
2018-09-30T08:51:00.104Z,24.90
2018-09-30T08:53:28.370Z,24.60
2018-09-30T08:55:57.441Z,24.70
2018-09-30T08:58:30.642Z,24.00
2018-09-30T09:01:04.393Z,23.60
2018-09-30T09:03:32.219Z,23.80
2018-09-30T09:06:00.087Z,23.70
2018-09-30T09:08:27.771Z,23.30
2018-09-30T09:10:55.804Z,23.70
2018-09-30T09:13:23.525Z,23.60
2018-09-30T09:15:51.252Z,23.30
2018-09-30T09:18:19.012Z,24.00
2018-09-30T09:20:46.625Z,23.10
2018-09-30T09:23:14.946Z,22.90
2018-09-30T09:25:42.695Z,23.20
2018-09-30T09:28:11.496Z,23.30
2018-09-30T09:30:39.969Z,22.90
2018-09-30T09:33:07.915Z,22.50
2018-09-30T09:35:36.717Z,22.70
2018-09-30T09:38:23.380Z,22.40
2018-09-30T09:40:51.018Z,22.10
2018-09-30T09:43:18.701Z,21.90
2018-09-30T09:45:46.650Z,21.60
2018-09-30T09:48:14.394Z,22.00
2018-09-30T09:50:42.516Z,21.70
2018-09-30T09:53:10.251Z,21.50
2018-09-30T09:55:37.963Z,21.80
2018-09-30T09:58:05.716Z,21.40
2018-09-30T10:00:39.173Z,21.20
2018-09-30T10:03:06.996Z,21.60
2018-09-30T10:05:35.118Z,22.10
2018-09-30T10:08:03.068Z,21.30
2018-09-30T10:10:30.801Z,21.40
2018-09-30T10:13:03.933Z,20.70
2018-09-30T10:15:31.922Z,20.10
2018-09-30T10:18:01.295Z,20.10
2018-09-30T10:20:29.431Z,20.20
2018-09-30T10:22:57.193Z,20.20
2018-09-30T10:25:25.764Z,20.80
2018-09-30T10:27:53.686Z,20.20
2018-09-30T10:30:21.669Z,20.20
2018-09-30T10:32:49.359Z,20.20
2018-09-30T10:35:19.018Z,20.60
2018-09-30T10:37:46.662Z,20.90
2018-09-30T10:40:16.022Z,21.00
2018-09-30T10:42:44.381Z,20.40
2018-09-30T10:45:12.179Z,20.50
2018-09-30T10:47:39.851Z,20.50
2018-09-30T10:50:07.473Z,19.70
2018-09-30T10:52:35.199Z,20.60
2018-09-30T10:55:03.107Z,19.80
2018-09-30T10:57:30.773Z,20.50
2018-09-30T10:59:58.733Z,19.80
2018-09-30T11:02:26.770Z,20.70
2018-09-30T11:04:54.406Z,20.40
2018-09-30T11:07:22.568Z,20.30
2018-09-30T11:09:57.074Z,20.30
2018-09-30T11:12:24.815Z,19.80
2018-09-30T11:14:56.366Z,20.30
2018-09-30T11:17:32.711Z,19.90
2018-09-30T11:20:01.979Z,20.00
2018-09-30T11:22:29.996Z,19.50
2018-09-30T11:24:58.249Z,19.80
2018-09-30T11:27:27.158Z,20.20
2018-09-30T11:29:56.002Z,19.70
2018-09-30T11:32:23.840Z,19.60
2018-09-30T11:34:51.644Z,20.00
2018-09-30T11:37:33.636Z,19.30
2018-09-30T11:40:02.010Z,19.60
2018-09-30T11:42:30.016Z,19.90
2018-09-30T11:44:59.085Z,19.10
2018-09-30T11:47:26.873Z,19.60
2018-09-30T11:49:54.686Z,19.60
2018-09-30T11:52:22.603Z,19.00
2018-09-30T11:57:24.055Z,19.00
2018-09-30T11:59:52.000Z,18.30
2018-09-30T12:02:19.761Z,19.20
2018-09-30T12:04:54.152Z,19.40
2018-09-30T12:07:31.903Z,18.20
2018-09-30T12:09:59.858Z,18.80
2018-09-30T12:12:27.550Z,18.70
2018-09-30T12:15:17.096Z,18.20
2018-09-30T12:17:45.052Z,18.80
2018-09-30T12:20:12.852Z,17.90
2018-09-30T12:22:40.827Z,17.20
2018-09-30T12:25:09.198Z,16.60
2018-09-30T12:27:37.058Z,17.00
2018-09-30T12:30:08.020Z,17.10
2018-09-30T12:32:36.652Z,16.30
2018-09-30T12:35:05.576Z,15.90
2018-09-30T12:37:40.257Z,16.00
2018-09-30T12:40:08.270Z,16.20
2018-09-30T12:42:36.036Z,16.30
2018-09-30T12:45:03.722Z,16.00
2018-09-30T12:47:31.755Z,16.10
2018-09-30T12:50:00.390Z,16.30
2018-09-30T12:52:28.155Z,16.60
2018-09-30T12:54:56.143Z,17.10
2018-09-30T12:57:23.943Z,17.00
2018-09-30T12:59:51.895Z,16.40
2018-09-30T13:02:19.628Z,16.80
2018-09-30T13:04:47.310Z,16.70
2018-09-30T13:07:15.042Z,16.80
2018-09-30T13:09:47.301Z,17.20
2018-09-30T13:12:15.085Z,17.40
2018-09-30T13:14:43.488Z,17.00
2018-09-30T13:17:11.860Z,17.40
2018-09-30T13:19:40.668Z,17.20
2018-09-30T13:22:09.276Z,17.20
2018-09-30T13:24:37.451Z,17.50
2018-09-30T13:27:05.135Z,17.50
2018-09-30T13:29:32.815Z,17.20
2018-09-30T13:32:06.722Z,17.40
2018-09-30T13:34:35.064Z,17.60
2018-09-30T13:37:02.954Z,18.10
2018-09-30T13:39:30.651Z,17.80
2018-09-30T13:41:58.615Z,17.90
2018-09-30T13:44:26.313Z,17.90
2018-09-30T13:46:53.954Z,17.80
2018-09-30T13:49:21.684Z,17.80
2018-09-30T13:51:49.718Z,17.80
2018-09-30T13:54:17.575Z,17.70
2018-09-30T13:56:45.328Z,17.80
2018-09-30T13:59:13.614Z,17.50
2018-09-30T14:01:41.472Z,17.80
2018-09-30T14:04:09.280Z,18.60
2018-09-30T14:06:37.785Z,18.20
2018-09-30T14:09:07.264Z,17.40
2018-09-30T14:11:34.995Z,17.70
2018-09-30T14:14:03.837Z,17.50
2018-09-30T14:16:32.027Z,17.50
2018-09-30T14:19:01.807Z,17.70
2018-09-30T14:21:29.669Z,17.50
2018-09-30T14:24:03.647Z,17.90
2018-09-30T14:26:31.627Z,17.80
2018-09-30T14:29:00.377Z,17.70
2018-09-30T14:31:28.179Z,17.70
2018-09-30T14:33:56.978Z,17.50
2018-09-30T14:36:26.605Z,17.60
2018-09-30T14:38:54.271Z,17.60
2018-09-30T14:41:22.272Z,17.70
2018-09-30T14:43:50.076Z,17.50
2018-09-30T14:46:18.116Z,17.30
2018-09-30T14:48:46.085Z,17.90
2018-09-30T14:51:14.052Z,17.90
2018-09-30T14:53:41.775Z,18.20
2018-09-30T14:56:09.740Z,17.60
2018-09-30T14:58:38.069Z,17.70
2018-09-30T15:01:06.230Z,17.70
2018-09-30T15:03:33.984Z,17.70
2018-09-30T15:06:02.055Z,17.30
2018-09-30T15:08:30.234Z,17.10
2018-09-30T15:10:58.431Z,16.50
2018-09-30T15:13:32.114Z,16.60
2018-09-30T15:15:59.805Z,16.70
2018-09-30T15:21:17.136Z,16.70
2018-09-30T15:23:44.958Z,16.80
2018-09-30T15:26:13.092Z,16.70
2018-09-30T15:28:41.080Z,16.70
2018-09-30T15:31:08.975Z,16.30
2018-09-30T15:33:36.688Z,16.20
2018-09-30T15:36:04.828Z,16.80
2018-09-30T15:38:32.793Z,16.50
2018-09-30T15:41:00.460Z,16.70
2018-09-30T15:43:30.978Z,16.70
2018-09-30T15:45:58.853Z,16.90
2018-09-30T15:48:26.788Z,16.60
2018-09-30T15:51:00.544Z,16.70
2018-09-30T15:53:28.647Z,17.10
2018-09-30T15:55:56.690Z,16.60
2018-09-30T15:58:25.059Z,17.10
2018-09-30T16:00:55.208Z,16.80
2018-09-30T16:03:23.680Z,17.00
2018-09-30T16:05:51.663Z,17.40
2018-09-30T16:08:19.387Z,17.40
2018-09-30T16:10:48.427Z,17.20
2018-09-30T16:13:16.304Z,17.20
2018-09-30T16:15:44.215Z,17.80
2018-09-30T16:18:12.122Z,17.90
2018-09-30T16:23:34.100Z,19.60
2018-09-30T16:26:02.011Z,19.50
2018-09-30T16:28:30.002Z,20.10
2018-09-30T16:30:57.726Z,20.00
2018-09-30T16:33:30.249Z,19.80
2018-09-30T16:35:57.936Z,19.90
2018-09-30T16:38:26.969Z,20.00
2018-09-30T16:40:54.972Z,20.40
2018-09-30T16:46:29.744Z,20.60
2018-09-30T16:48:57.924Z,20.50
2018-09-30T16:51:26.027Z,21.10
2018-09-30T16:53:54.244Z,20.60
2018-09-30T16:56:38.597Z,20.70
2018-09-30T16:59:10.993Z,21.10
2018-09-30T17:04:54.633Z,21.30
2018-09-30T17:07:24.063Z,21.30
2018-09-30T17:13:21.824Z,21.10
2018-09-30T17:16:06.953Z,21.30
2018-09-30T17:18:35.277Z,21.00
2018-09-30T17:21:03.164Z,21.50
2018-09-30T17:23:38.457Z,21.70
2018-09-30T17:26:06.397Z,21.30
2018-09-30T17:28:35.780Z,21.60
2018-09-30T17:31:10.712Z,21.70
2018-09-30T17:33:38.678Z,22.10
2018-09-30T17:36:07.412Z,22.40
2018-09-30T17:38:35.143Z,22.40
2018-09-30T17:41:02.799Z,22.40
2018-09-30T17:43:30.936Z,22.40
2018-09-30T17:45:59.700Z,22.50
2018-09-30T17:48:27.779Z,22.40
2018-09-30T17:50:55.934Z,22.50
2018-09-30T17:53:23.774Z,22.70
2018-09-30T17:55:52.126Z,22.90
2018-09-30T17:58:20.150Z,23.10
2018-09-30T18:00:48.012Z,23.50
2018-09-30T18:03:16.189Z,23.60
2018-09-30T18:05:50.118Z,24.00
2018-09-30T18:08:21.641Z,23.80
2018-09-30T18:10:56.796Z,24.00
2018-09-30T18:13:25.626Z,24.00
2018-09-30T18:15:53.864Z,24.20
2018-09-30T18:18:21.744Z,24.40
2018-09-30T18:20:49.471Z,24.50
2018-09-30T18:23:17.207Z,24.60
2018-09-30T18:25:45.003Z,24.60
2018-09-30T18:28:12.845Z,24.90
2018-09-30T18:30:41.838Z,24.70
2018-09-30T18:33:09.931Z,24.80
2018-09-30T18:35:37.877Z,24.90
2018-09-30T18:38:08.609Z,25.20
2018-09-30T18:40:42.504Z,25.10
2018-09-30T18:43:17.854Z,25.00
2018-09-30T18:45:47.052Z,25.20
2018-09-30T18:48:17.788Z,25.30
2018-09-30T18:50:47.701Z,25.40
2018-09-30T18:53:15.603Z,25.40
2018-09-30T18:55:43.906Z,25.60
2018-09-30T18:58:11.828Z,25.50
2018-09-30T19:00:40.381Z,26.10
2018-09-30T19:03:09.116Z,25.60
2018-09-30T19:05:38.037Z,25.70
2018-09-30T19:08:05.994Z,25.80
2018-09-30T19:10:33.898Z,26.10
2018-09-30T19:13:01.652Z,26.10
2018-09-30T19:15:29.471Z,26.30
2018-09-30T19:17:58.450Z,26.30
2018-09-30T19:20:31.149Z,26.30
2018-09-30T19:23:00.163Z,26.70
2018-09-30T19:25:36.630Z,26.60
2018-09-30T19:28:04.968Z,26.60
2018-09-30T19:30:32.873Z,26.80
2018-09-30T19:33:00.815Z,26.90
2018-09-30T19:35:28.799Z,26.70
2018-09-30T19:40:41.628Z,26.80
2018-09-30T19:45:57.048Z,27.00
2018-09-30T19:48:25.600Z,27.00
2018-09-30T19:50:54.910Z,27.30
2018-09-30T19:53:28.437Z,27.40
2018-09-30T19:55:56.967Z,27.10
2018-09-30T20:00:58.974Z,27.30
2018-09-30T20:03:33.364Z,27.10
2018-09-30T20:06:03.135Z,27.10
2018-09-30T20:08:34.052Z,27.30
2018-09-30T20:11:02.235Z,27.20
2018-09-30T20:13:37.509Z,27.30
2018-09-30T20:16:06.880Z,27.30
2018-09-30T20:18:37.483Z,27.20
2018-09-30T20:21:06.135Z,27.20
2018-09-30T20:23:49.099Z,27.20
2018-09-30T20:26:22.113Z,27.40
2018-09-30T20:31:38.128Z,27.30
2018-09-30T20:34:10.040Z,27.40
2018-09-30T20:36:38.288Z,27.40
2018-09-30T20:39:06.934Z,27.50
2018-09-30T20:41:37.375Z,27.80
2018-09-30T20:44:09.224Z,27.70
2018-09-30T20:46:40.235Z,28.00
2018-09-30T20:49:08.381Z,27.70
2018-09-30T20:51:41.438Z,27.90
2018-09-30T20:54:10.328Z,27.80
2018-09-30T20:56:57.987Z,27.80
2018-09-30T20:59:28.754Z,27.80
2018-09-30T21:01:57.758Z,28.00
2018-09-30T21:04:29.347Z,28.10
2018-09-30T21:06:57.595Z,28.40
2018-09-30T21:12:05.174Z,28.50
2018-09-30T21:14:33.100Z,28.50
2018-09-30T21:17:01.566Z,28.50
2018-09-30T21:19:35.356Z,28.40
2018-09-30T21:22:03.822Z,28.50
2018-09-30T21:24:32.040Z,28.40
2018-09-30T21:27:01.769Z,28.40
2018-09-30T21:29:29.666Z,28.50
2018-09-30T21:31:57.864Z,28.30
2018-09-30T21:34:25.988Z,28.50
2018-09-30T21:36:54.408Z,28.40
2018-09-30T21:39:22.171Z,28.30
2018-09-30T21:41:50.376Z,28.30
2018-09-30T21:44:21.984Z,28.30
2018-09-30T21:46:49.946Z,28.30
2018-09-30T21:49:17.897Z,28.30
2018-09-30T21:51:58.084Z,28.30
2018-09-30T21:54:30.455Z,28.00
2018-09-30T21:56:59.852Z,28.40
2018-09-30T21:59:28.495Z,28.30
2018-09-30T22:01:56.975Z,28.30
2018-09-30T22:04:25.209Z,28.40
2018-09-30T22:06:55.093Z,28.40
2018-09-30T22:09:23.239Z,28.40
2018-09-30T22:11:51.236Z,27.80
2018-09-30T22:14:19.093Z,28.10
2018-09-30T22:16:47.085Z,28.30
2018-09-30T22:19:15.201Z,27.30
2018-09-30T22:21:43.186Z,26.80
2018-09-30T22:24:12.060Z,26.90
2018-09-30T22:26:40.042Z,25.90
2018-09-30T22:29:07.865Z,26.50
2018-09-30T22:31:35.715Z,25.70
2018-09-30T22:34:03.534Z,25.80
2018-09-30T22:36:31.393Z,26.30
2018-09-30T22:38:59.287Z,26.10
2018-09-30T22:41:26.968Z,26.50
2018-09-30T22:43:54.777Z,26.80
2018-09-30T22:46:27.664Z,26.80
2018-09-30T22:48:55.631Z,26.60
2018-09-30T22:51:24.532Z,27.00
2018-09-30T22:53:56.617Z,26.90
2018-09-30T22:56:24.415Z,27.00
2018-09-30T22:58:52.230Z,26.70
2018-09-30T23:01:19.943Z,26.60
2018-09-30T23:03:47.596Z,26.70
2018-09-30T23:06:16.269Z,27.10
2018-09-30T23:08:44.872Z,27.00
2018-09-30T23:11:12.549Z,27.00
2018-09-30T23:13:41.147Z,27.00
2018-09-30T23:16:10.375Z,27.20
2018-09-30T23:18:38.092Z,27.50
2018-09-30T23:21:05.684Z,28.10
2018-09-30T23:23:35.195Z,28.10
2018-09-30T23:26:03.319Z,27.50
2018-09-30T23:28:31.803Z,27.40
2018-09-30T23:30:59.554Z,27.60
2018-09-30T23:33:27.399Z,27.70
2018-09-30T23:35:55.020Z,27.90
2018-09-30T23:38:23.312Z,28.20
2018-09-30T23:40:51.704Z,28.80
2018-09-30T23:43:26.296Z,28.30
2018-09-30T23:45:54.033Z,28.20
2018-09-30T23:48:23.135Z,28.20
2018-09-30T23:50:50.756Z,28.20
2018-09-30T23:53:18.425Z,28.20
2018-09-30T23:55:46.216Z,28.10
2018-09-30T23:58:14.816Z,28.20
